Time;durP1;ratioP1;P1;durP2;ratioP2;P2;SDS_P1;SDS_P2;PMS_P1;PMS_P2;Temp;Humidity;BMP_temperature;BMP_pressure;BME280_temperature;BME280_humidity;BME280_pressure;Samples;Min_cycle;Max_cycle;Signal;HPM_P1;HPM_P2
2023/08/09 00:00:32;;;;;;;14.80;3.42;;;39.30;41.10;;;;;;5044924;28;20247;-58
2023/08/09 00:03:02;;;;;;;31.48;4.15;;;39.30;40.90;;;;;;5045789;28;20056;-60
2023/08/09 00:05:29;;;;;;;17.00;3.97;;;39.10;41.20;;;;;;5045624;28;20075;-59
2023/08/09 00:07:55;;;;;;;13.95;3.78;;;39.00;41.50;;;;;;5045194;28;20112;-61
2023/08/09 00:10:22;;;;;;;15.60;3.88;;;39.00;42.00;;;;;;5045726;28;20062;-61
2023/08/09 00:12:49;;;;;;;42.17;5.28;;;39.00;42.20;;;;;;5044238;28;20065;-61
2023/08/09 00:15:15;;;;;;;22.92;4.80;;;38.90;42.60;;;;;;5045200;28;20067;-61
2023/08/09 00:17:42;;;;;;;21.25;4.88;;;38.60;42.90;;;;;;5044340;28;20080;-63
2023/08/09 00:20:08;;;;;;;24.90;4.85;;;38.50;43.10;;;;;;5046452;28;20079;-59
2023/08/09 00:22:35;;;;;;;16.25;3.72;;;38.30;43.30;;;;;;5046100;28;20070;-59
2023/08/09 00:25:01;;;;;;;21.05;4.47;;;38.20;43.70;;;;;;5044041;28;20062;-60
2023/08/09 00:27:28;;;;;;;24.65;4.40;;;38.10;43.60;;;;;;5045294;28;20087;-60
2023/08/09 00:29:55;;;;;;;25.65;4.15;;;38.10;43.70;;;;;;5046109;28;20573;-61
2023/08/09 00:32:21;;;;;;;19.25;3.88;;;38.00;43.90;;;;;;5046031;28;20532;-55
2023/08/09 00:34:48;;;;;;;15.35;3.20;;;37.80;44.10;;;;;;5044490;28;20155;-55
2023/08/09 00:37:14;;;;;;;19.95;3.30;;;37.60;44.30;;;;;;5045176;28;20066;-55
2023/08/09 00:39:41;;;;;;;21.27;3.88;;;37.50;44.50;;;;;;5046407;28;20544;-56
2023/08/09 00:42:07;;;;;;;15.50;3.38;;;37.40;44.80;;;;;;5046537;28;20086;-59
2023/08/09 00:44:34;;;;;;;15.13;3.55;;;37.30;45.20;;;;;;5045996;28;20099;-57
2023/08/09 00:47:00;;;;;;;16.55;3.30;;;37.20;45.90;;;;;;5048738;28;20149;-55
2023/08/09 00:49:27;;;;;;;17.60;3.50;;;37.10;46.20;;;;;;5049081;28;20090;-58
2023/08/09 00:51:53;;;;;;;13.90;3.65;;;37.00;46.20;;;;;;5048100;28;20086;-56
2023/08/09 00:54:20;;;;;;;15.13;3.40;;;36.90;46.60;;;;;;5063596;28;20153;-56
2023/08/09 00:56:47;;;;;;;16.65;4.28;;;36.80;46.60;;;;;;5049618;28;20077;-57
2023/08/09 00:59:13;;;;;;;16.08;3.58;;;36.80;46.80;;;;;;5049528;28;20169;-57
2023/08/09 01:01:40;;;;;;;15.13;3.67;;;36.70;47.00;;;;;;5049183;28;20106;-56
2023/08/09 01:04:07;;;;;;;15.07;3.33;;;36.50;47.40;;;;;;5049684;28;20086;-56
2023/08/09 01:06:49;;;;;;;19.27;3.33;;;36.50;47.30;;;;;;5049368;28;20083;-53
2023/08/09 01:09:47;;;;;;;13.00;3.55;;;36.40;47.60;;;;;;5049136;28;20077;-58
2023/08/09 01:12:19;;;;;;;14.65;3.53;;;36.40;48.00;;;;;;5007518;28;20093;-56
2023/08/09 01:14:52;;;;;;;17.95;3.58;;;36.30;48.20;;;;;;5007846;28;20080;-57
2023/08/09 01:17:21;;;;;;;14.52;3.17;;;36.20;48.60;;;;;;5007559;28;20091;-59
2023/08/09 01:19:51;;;;;;;13.48;3.63;;;36.00;48.60;;;;;;5009404;28;20141;-55
2023/08/09 01:22:26;;;;;;;18.83;3.90;;;36.00;49.00;;;;;;5003068;28;20107;-55
2023/08/09 01:24:53;;;;;;;17.08;3.45;;;36.00;48.90;;;;;;5007365;28;20557;-57
2023/08/09 01:27:19;;;;;;;20.40;3.70;;;35.90;49.20;;;;;;5006608;28;20095;-56
2023/08/09 01:29:46;;;;;;;21.40;3.55;;;36.00;49.20;;;;;;5009138;28;20093;-60
2023/08/09 01:32:13;;;;;;;20.40;3.10;;;35.80;49.30;;;;;;5007740;28;20708;-56
2023/08/09 01:34:40;;;;;;;18.10;3.03;;;35.60;49.80;;;;;;5007411;28;20125;-55
2023/08/09 01:37:24;;;;;;;14.80;2.25;;;35.60;50.00;;;;;;5007002;28;20131;-56
2023/08/09 01:39:54;;;;;;;14.98;2.65;;;35.40;50.20;;;;;;5007621;28;20179;-57
2023/08/09 01:42:21;;;;;;;14.18;2.83;;;35.30;50.30;;;;;;5007599;28;20521;-55
2023/08/09 01:44:48;;;;;;;15.38;3.05;;;35.30;50.40;;;;;;5006406;28;20441;-57
2023/08/09 01:47:16;;;;;;;12.70;2.92;;;35.20;50.40;;;;;;5005929;28;20076;-57
2023/08/09 01:49:48;;;;;;;10.70;2.70;;;35.10;50.50;;;;;;5046463;28;20141;-57
2023/08/09 01:52:15;;;;;;;10.90;2.78;;;35.20;50.50;;;;;;5049601;28;20167;-57
2023/08/09 01:54:42;;;;;;;11.82;3.08;;;35.10;50.70;;;;;;5049053;28;20578;-56
2023/08/09 01:57:08;;;;;;;10.85;2.60;;;35.00;51.00;;;;;;5048220;28;20092;-56
2023/08/09 01:59:35;;;;;;;7.80;2.97;;;34.90;51.20;;;;;;5048585;28;20076;-55
2023/08/09 02:02:01;;;;;;;6.90;2.50;;;34.90;51.40;;;;;;5049001;28;20093;-56
2023/08/09 02:04:28;;;;;;;12.70;2.97;;;34.90;51.60;;;;;;5049009;28;20072;-57
2023/08/09 02:06:54;;;;;;;12.60;3.38;;;34.90;51.70;;;;;;5049521;28;20127;-56
2023/08/09 02:09:21;;;;;;;8.90;2.97;;;35.40;51.00;;;;;;5048613;28;20078;-57
2023/08/09 02:11:47;;;;;;;16.85;3.10;;;35.80;50.50;;;;;;5047107;28;20089;-55
2023/08/09 02:14:14;;;;;;;13.70;2.85;;;35.90;51.10;;;;;;5048108;28;20086;-55
2023/08/09 02:16:40;;;;;;;7.10;3.05;;;35.80;52.00;;;;;;5047606;28;20478;-58
2023/08/09 02:19:09;;;;;;;12.80;2.80;;;35.80;51.00;;;;;;5047703;28;20087;-59
2023/08/09 02:21:38;;;;;;;11.38;2.78;;;35.70;50.70;;;;;;5047542;28;20579;-57
2023/08/09 02:24:05;;;;;;;15.27;3.35;;;35.80;50.70;;;;;;5046369;28;20085;-55
2023/08/09 02:26:33;;;;;;;11.93;2.67;;;35.90;50.60;;;;;;5047029;28;20075;-56
2023/08/09 02:29:03;;;;;;;10.07;2.13;;;35.90;50.80;;;;;;5047161;28;20541;-57
2023/08/09 02:31:31;;;;;;;8.38;2.67;;;36.00;50.20;;;;;;5048111;28;20167;-52
2023/08/09 02:33:58;;;;;;;15.63;2.65;;;35.90;50.40;;;;;;5046030;28;20103;-54
2023/08/09 02:36:25;;;;;;;9.40;2.67;;;36.00;50.40;;;;;;5047509;28;20104;-58
2023/08/09 02:38:52;;;;;;;9.93;2.63;;;36.00;50.20;;;;;;5047194;28;20508;-55
2023/08/09 02:41:21;;;;;;;9.80;2.40;;;36.00;50.20;;;;;;5047044;28;20105;-59
2023/08/09 02:43:48;;;;;;;10.55;2.70;;;35.90;50.10;;;;;;5046067;28;20079;-59
2023/08/09 02:46:14;;;;;;;11.02;2.85;;;35.90;50.30;;;;;;5047240;28;20114;-59
2023/08/09 02:48:41;;;;;;;12.20;3.10;;;35.90;50.40;;;;;;5047169;28;20511;-58
2023/08/09 02:51:07;;;;;;;10.05;3.38;;;35.90;50.20;;;;;;5046496;28;20075;-57
2023/08/09 02:53:56;;;;;;;13.13;3.08;;;36.00;50.30;;;;;;5047640;28;20147;-57
2023/08/09 02:56:22;;;;;;;15.57;3.88;;;36.10;50.40;;;;;;5045645;28;20082;-56
2023/08/09 02:58:48;;;;;;;10.10;2.55;;;36.10;50.00;;;;;;5047066;28;20507;-59
2023/08/09 03:01:15;;;;;;;11.55;2.78;;;36.10;50.30;;;;;;5046854;28;20126;-58
2023/08/09 03:03:41;;;;;;;14.50;2.60;;;35.90;50.40;;;;;;5045464;28;20099;-58
2023/08/09 03:06:08;;;;;;;9.35;2.53;;;35.90;51.10;;;;;;5046633;28;20080;-57
2023/08/09 03:08:34;;;;;;;7.97;2.38;;;35.80;50.60;;;;;;5046911;28;20081;-57
2023/08/09 03:11:01;;;;;;;11.40;2.42;;;35.80;50.90;;;;;;5046441;28;20081;-52
2023/08/09 03:13:28;;;;;;;16.40;2.85;;;35.90;50.60;;;;;;5046548;28;20090;-58
2023/08/09 03:15:55;;;;;;;11.20;2.40;;;35.90;50.50;;;;;;5047671;28;20162;-59
2023/08/09 03:18:21;;;;;;;10.68;2.83;;;35.90;50.80;;;;;;5045280;28;20111;-55
2023/08/09 03:20:48;;;;;;;16.08;2.30;;;35.80;50.60;;;;;;5046170;28;20094;-57
2023/08/09 03:23:15;;;;;;;7.22;2.28;;;35.80;50.90;;;;;;5046727;28;20108;-56
2023/08/09 03:25:41;;;;;;;11.68;3.00;;;35.80;50.80;;;;;;5046516;28;20085;-57
2023/08/09 03:28:07;;;;;;;12.43;2.80;;;35.80;50.70;;;;;;5046753;28;20486;-54
2023/08/09 03:30:34;;;;;;;15.00;2.92;;;35.80;50.50;;;;;;5046918;28;20090;-59
2023/08/09 03:33:00;;;;;;;10.20;2.38;;;35.70;50.60;;;;;;5046692;28;20573;-58
2023/08/09 03:35:26;;;;;;;7.80;2.00;;;35.60;50.60;;;;;;5046391;28;20084;-57
2023/08/09 03:37:53;;;;;;;10.27;2.65;;;35.50;50.40;;;;;;5046060;28;20125;-57
2023/08/09 03:40:19;;;;;;;13.15;2.33;;;35.50;50.60;;;;;;5045824;28;20182;-57
2023/08/09 03:42:45;;;;;;;10.27;2.67;;;35.40;50.50;;;;;;5047393;28;20136;-57
2023/08/09 03:45:12;;;;;;;10.77;2.15;;;35.40;50.70;;;;;;5047076;28;20095;-59
2023/08/09 03:47:38;;;;;;;9.63;2.10;;;35.30;50.60;;;;;;5045795;28;20111;-57
2023/08/09 03:50:06;;;;;;;6.10;2.13;;;35.30;50.20;;;;;;5045578;28;20131;-59
2023/08/09 03:52:33;;;;;;;6.30;2.20;;;35.30;50.40;;;;;;5046000;28;20099;-58
2023/08/09 03:55:00;;;;;;;8.93;2.00;;;35.30;50.20;;;;;;5045071;28;20476;-57
2023/08/09 03:57:27;;;;;;;7.45;2.30;;;35.20;49.80;;;;;;5044512;28;20083;-60
2023/08/09 03:59:54;;;;;;;6.60;1.90;;;35.20;49.70;;;;;;5046438;28;20080;-58
2023/08/09 04:02:21;;;;;;;6.47;2.15;;;35.20;49.50;;;;;;5045950;28;20133;-58
2023/08/09 04:04:48;;;;;;;21.98;2.10;;;35.10;49.60;;;;;;5046248;28;20076;-53
2023/08/09 04:07:14;;;;;;;8.32;1.92;;;35.10;49.40;;;;;;5045003;28;20080;-55
2023/08/09 04:09:41;;;;;;;11.50;2.45;;;35.10;49.40;;;;;;5045815;28;20088;-58
2023/08/09 04:12:08;;;;;;;13.13;2.38;;;35.10;49.30;;;;;;5046246;28;20109;-55
2023/08/09 04:14:34;;;;;;;13.68;2.58;;;35.00;49.10;;;;;;5046409;28;20127;-55
2023/08/09 04:17:01;;;;;;;6.35;2.03;;;35.10;49.40;;;;;;5044596;28;20130;-55
2023/08/09 04:19:27;;;;;;;10.65;2.00;;;35.10;49.30;;;;;;5045311;28;20659;-56
2023/08/09 04:21:54;;;;;;;12.07;2.08;;;35.10;49.30;;;;;;5048730;28;20138;-58
2023/08/09 04:24:20;;;;;;;6.22;1.92;;;35.00;49.20;;;;;;5049776;28;20068;-57
2023/08/09 04:26:47;;;;;;;12.38;2.30;;;35.00;49.60;;;;;;5046897;28;20077;-60
2023/08/09 04:29:13;;;;;;;6.68;2.80;;;34.90;49.50;;;;;;5047643;28;20076;-56
2023/08/09 04:31:40;;;;;;;8.90;3.00;;;34.80;49.70;;;;;;5047450;28;20083;-55
2023/08/09 04:34:06;;;;;;;6.47;2.60;;;34.80;50.00;;;;;;5048256;28;20084;-57
2023/08/09 04:36:33;;;;;;;10.13;2.40;;;34.80;50.20;;;;;;5047443;28;21045;-54
2023/08/09 04:38:59;;;;;;;7.90;2.17;;;34.70;50.20;;;;;;5045776;28;20503;-56
2023/08/09 04:41:26;;;;;;;2.95;1.75;;;34.60;50.20;;;;;;5047396;28;20100;-55
2023/08/09 04:43:52;;;;;;;8.48;1.80;;;34.60;50.80;;;;;;5048759;28;20652;-56
2023/08/09 04:46:19;;;;;;;6.15;1.98;;;34.50;50.20;;;;;;5047178;28;20108;-59
2023/08/09 04:48:45;;;;;;;14.45;2.20;;;34.50;50.50;;;;;;5045368;28;20072;-58
2023/08/09 04:51:12;;;;;;;7.57;2.20;;;34.40;50.50;;;;;;5047404;28;20168;-51
2023/08/09 04:53:38;;;;;;;9.10;2.15;;;34.40;50.60;;;;;;5049707;28;20513;-56
2023/08/09 04:56:05;;;;;;;9.32;2.20;;;34.30;50.60;;;;;;5049725;28;20453;-56
2023/08/09 04:58:32;;;;;;;7.47;2.45;;;34.20;50.70;;;;;;5049192;28;20541;-58
2023/08/09 05:00:59;;;;;;;11.85;2.60;;;34.20;50.80;;;;;;5048592;28;20165;-60
2023/08/09 05:03:26;;;;;;;8.55;2.60;;;34.20;50.80;;;;;;5047542;28;20488;-59
2023/08/09 05:05:52;;;;;;;8.15;2.90;;;34.20;50.60;;;;;;5047965;28;20091;-57
2023/08/09 05:08:19;;;;;;;12.07;2.60;;;34.20;50.60;;;;;;5046605;28;20560;-59
2023/08/09 05:10:45;;;;;;;9.40;2.50;;;34.20;50.70;;;;;;5047573;28;20085;-59
2023/08/09 05:13:11;;;;;;;9.52;2.35;;;34.00;50.30;;;;;;5048693;28;20622;-55
2023/08/09 05:15:38;;;;;;;11.45;2.40;;;34.10;50.60;;;;;;5050394;28;20179;-56
2023/08/09 05:18:05;;;;;;;9.85;2.30;;;34.10;50.60;;;;;;5050501;28;20085;-54
2023/08/09 05:20:31;;;;;;;10.10;2.55;;;34.00;50.50;;;;;;5050147;28;20497;-56
2023/08/09 05:22:58;;;;;;;5.07;2.38;;;34.00;50.70;;;;;;5048227;28;20179;-58
2023/08/09 05:25:24;;;;;;;7.03;2.45;;;33.90;51.00;;;;;;5047680;28;20134;-56
2023/08/09 05:27:50;;;;;;;13.05;2.53;;;33.90;51.00;;;;;;5047217;28;20130;-59
2023/08/09 05:30:20;;;;;;;11.23;2.75;;;33.90;51.10;;;;;;5048349;28;20115;-58
2023/08/09 05:32:47;;;;;;;16.00;2.50;;;33.80;51.20;;;;;;5046351;28;20108;-57
2023/08/09 05:35:14;;;;;;;8.10;2.53;;;33.80;51.10;;;;;;5047359;28;20076;-55
2023/08/09 05:37:40;;;;;;;10.20;2.47;;;33.60;51.60;;;;;;5046871;28;20090;-59
2023/08/09 05:40:13;;;;;;;8.05;2.47;;;33.60;51.20;;;;;;5047083;28;20164;-56
2023/08/09 05:42:40;;;;;;;10.60;2.75;;;33.60;51.30;;;;;;5047997;28;20440;-57
2023/08/09 05:45:15;;;;;;;6.05;2.30;;;33.70;51.60;;;;;;5048242;28;20675;-57
2023/08/09 05:47:42;;;;;;;7.82;2.90;;;33.60;51.50;;;;;;5046352;28;20091;-58
2023/08/09 05:50:08;;;;;;;11.82;3.10;;;33.60;51.60;;;;;;5048255;28;20100;-57
2023/08/09 05:52:35;;;;;;;8.18;2.63;;;33.60;51.60;;;;;;5047172;28;20115;-55
2023/08/09 05:55:01;;;;;;;12.20;2.55;;;33.60;51.80;;;;;;5046550;28;20565;-55
2023/08/09 05:57:28;;;;;;;11.35;2.65;;;33.60;51.50;;;;;;5047165;28;20129;-55
2023/08/09 05:59:54;;;;;;;18.40;2.92;;;33.60;51.40;;;;;;5047159;28;20108;-57
2023/08/09 06:02:20;;;;;;;28.25;3.17;;;33.50;51.40;;;;;;5046330;28;20457;-58
2023/08/09 06:04:47;;;;;;;12.60;2.92;;;33.50;51.70;;;;;;5046751;28;20076;-55
2023/08/09 06:07:13;;;;;;;6.30;3.08;;;33.50;51.20;;;;;;5046590;28;20100;-55
2023/08/09 06:09:40;;;;;;;6.68;2.30;;;33.50;51.50;;;;;;5046848;28;20449;-57
2023/08/09 06:12:06;;;;;;;7.90;2.58;;;33.50;51.40;;;;;;5047644;28;20106;-57
2023/08/09 06:14:33;;;;;;;13.65;2.72;;;33.40;51.50;;;;;;5046251;28;20123;-55
2023/08/09 06:17:00;;;;;;;9.68;2.42;;;33.40;51.60;;;;;;5046558;28;20084;-57
2023/08/09 06:19:26;;;;;;;6.47;2.25;;;33.40;51.60;;;;;;5044463;28;20462;-54
2023/08/09 06:21:52;;;;;;;8.75;2.28;;;33.40;51.70;;;;;;5046355;28;21265;-56
2023/08/09 06:24:19;;;;;;;10.55;2.55;;;33.30;51.70;;;;;;5046692;28;20098;-56
2023/08/09 06:26:45;;;;;;;12.95;2.67;;;33.30;51.60;;;;;;5046283;28;20084;-55
2023/08/09 06:29:12;;;;;;;12.95;2.53;;;33.20;51.70;;;;;;5046590;28;20164;-58
2023/08/09 06:31:39;;;;;;;5.88;2.45;;;33.30;51.60;;;;;;5047074;28;20103;-55
2023/08/09 06:34:05;;;;;;;16.67;3.33;;;33.20;51.60;;;;;;5045654;28;20580;-56
2023/08/09 06:36:32;;;;;;;7.97;2.92;;;33.20;51.70;;;;;;5046608;28;20083;-55
2023/08/09 06:38:58;;;;;;;10.07;2.60;;;33.10;51.70;;;;;;5046740;28;20076;-55
2023/08/09 06:41:24;;;;;;;13.95;2.72;;;33.20;51.90;;;;;;5046227;28;20660;-59
2023/08/09 06:43:51;;;;;;;7.05;2.25;;;33.10;51.90;;;;;;5046323;28;20111;-55
2023/08/09 06:46:17;;;;;;;9.10;2.55;;;33.10;52.00;;;;;;5046048;28;20542;-55
2023/08/09 06:48:43;;;;;;;6.70;2.30;;;33.10;52.00;;;;;;5046569;28;20239;-57
2023/08/09 06:51:11;;;;;;;10.75;3.00;;;33.00;51.90;;;;;;5046175;28;20080;-56
2023/08/09 06:53:37;;;;;;;5.82;2.50;;;33.10;52.00;;;;;;5046930;28;20465;-57
2023/08/09 06:56:04;;;;;;;9.80;2.42;;;33.10;52.00;;;;;;5045962;28;20087;-55
2023/08/09 06:58:30;;;;;;;6.85;2.45;;;33.10;52.10;;;;;;5046302;28;20089;-55
2023/08/09 07:00:57;;;;;;;8.65;2.67;;;33.00;52.10;;;;;;5044216;28;20096;-55
2023/08/09 07:03:23;;;;;;;6.78;2.70;;;33.00;52.00;;;;;;5045928;28;20561;-57
2023/08/09 07:05:49;;;;;;;4.07;2.05;;;33.00;52.00;;;;;;5046126;28;20092;-57
2023/08/09 07:08:16;;;;;;;10.40;2.50;;;32.90;52.00;;;;;;5045671;28;20083;-58
2023/08/09 07:10:43;;;;;;;8.95;2.13;;;33.00;52.20;;;;;;5045442;28;20125;-55
2023/08/09 07:13:10;;;;;;;5.40;2.20;;;33.00;52.10;;;;;;5045554;28;20158;-56
2023/08/09 07:15:37;;;;;;;5.45;2.45;;;32.90;51.90;;;;;;5046019;28;20076;-53
2023/08/09 07:18:03;;;;;;;6.50;1.95;;;32.90;52.00;;;;;;5045345;28;20091;-59
2023/08/09 07:20:30;;;;;;;11.52;2.58;;;32.90;52.10;;;;;;5046543;28;20096;-58
2023/08/09 07:22:56;;;;;;;6.78;2.25;;;32.90;52.20;;;;;;5045591;28;20083;-55
2023/08/09 07:25:23;;;;;;;7.70;2.35;;;32.90;52.20;;;;;;5045482;28;20085;-56
2023/08/09 07:27:50;;;;;;;4.22;2.28;;;32.90;52.10;;;;;;5045274;28;20082;-57
2023/08/09 07:30:17;;;;;;;5.50;1.90;;;32.80;52.10;;;;;;5045186;28;20479;-56
2023/08/09 07:32:44;;;;;;;5.70;2.40;;;32.80;52.30;;;;;;5045241;28;20600;-58
2023/08/09 07:35:12;;;;;;;5.25;2.30;;;32.80;52.50;;;;;;5045009;28;20076;-57
2023/08/09 07:37:40;;;;;;;4.55;2.10;;;32.80;52.10;;;;;;5044914;28;20569;-55
2023/08/09 07:40:08;;;;;;;8.70;2.15;;;32.80;52.20;;;;;;5044577;28;20542;-57
2023/08/09 07:42:36;;;;;;;6.75;2.45;;;32.80;52.20;;;;;;5044684;28;20076;-57
2023/08/09 07:45:03;;;;;;;9.85;2.72;;;32.80;52.30;;;;;;5044412;28;20108;-53
2023/08/09 07:47:30;;;;;;;6.22;2.42;;;32.80;52.30;;;;;;5045037;28;20134;-57
2023/08/09 07:49:56;;;;;;;5.80;2.33;;;32.70;52.40;;;;;;5044776;28;20187;-56
2023/08/09 07:52:23;;;;;;;11.70;2.83;;;32.70;52.50;;;;;;5044814;28;20172;-57
2023/08/09 07:54:49;;;;;;;7.88;2.47;;;32.70;52.40;;;;;;5046232;28;20084;-56
2023/08/09 07:57:15;;;;;;;5.75;2.47;;;32.60;52.20;;;;;;5045000;28;21568;-58
2023/08/09 07:59:42;;;;;;;8.48;2.75;;;32.60;52.50;;;;;;5045389;28;20469;-55
2023/08/09 08:02:09;;;;;;;5.45;2.30;;;32.60;52.40;;;;;;5044914;28;20126;-54
2023/08/09 08:04:35;;;;;;;9.27;2.50;;;32.60;52.50;;;;;;5044619;28;20108;-57
2023/08/09 08:07:03;;;;;;;7.18;2.72;;;32.60;52.20;;;;;;5045776;28;20174;-56
2023/08/09 08:09:32;;;;;;;7.05;2.95;;;32.50;52.50;;;;;;5045976;28;20079;-56
2023/08/09 08:11:59;;;;;;;9.57;2.92;;;32.50;52.30;;;;;;5045817;28;20091;-57
2023/08/09 08:14:26;;;;;;;8.50;2.40;;;32.50;52.30;;;;;;5046079;28;20111;-58
2023/08/09 08:16:52;;;;;;;5.50;2.58;;;32.40;52.40;;;;;;5045654;28;20084;-52
2023/08/09 08:19:19;;;;;;;7.70;2.80;;;32.40;52.20;;;;;;5045837;28;20084;-56
2023/08/09 08:21:45;;;;;;;6.55;2.60;;;32.30;52.50;;;;;;5045877;28;20158;-56
2023/08/09 08:24:11;;;;;;;6.20;2.65;;;32.30;52.30;;;;;;5046660;28;20076;-57
2023/08/09 08:26:38;;;;;;;4.97;2.30;;;32.30;52.30;;;;;;5045881;28;20506;-55
2023/08/09 08:29:04;;;;;;;5.88;2.20;;;32.30;52.10;;;;;;5045980;28;20107;-56
2023/08/09 08:31:32;;;;;;;5.70;2.50;;;32.30;52.00;;;;;;5046327;28;20168;-58
2023/08/09 08:33:59;;;;;;;8.60;2.42;;;32.30;52.10;;;;;;5045405;28;20190;-53
2023/08/09 08:36:26;;;;;;;7.60;2.35;;;32.30;51.90;;;;;;5045589;28;20166;-56
2023/08/09 08:38:53;;;;;;;9.43;2.70;;;32.30;52.10;;;;;;5044841;28;20534;-53
2023/08/09 08:41:19;;;;;;;11.48;2.78;;;32.30;52.00;;;;;;5045699;28;20255;-57
2023/08/09 08:43:46;;;;;;;8.65;2.65;;;32.20;52.30;;;;;;5046113;28;20171;-57
2023/08/09 08:46:18;;;;;;;5.50;2.38;;;32.20;52.20;;;;;;5045942;28;20130;-56
2023/08/09 08:48:49;;;;;;;6.55;2.75;;;32.10;52.30;;;;;;5045078;28;20445;-54
2023/08/09 08:51:17;;;;;;;5.40;2.28;;;32.10;51.70;;;;;;5045342;28;20091;-55
2023/08/09 08:53:44;;;;;;;8.48;2.30;;;32.10;51.80;;;;;;5046136;28;20580;-56
2023/08/09 08:56:10;;;;;;;12.98;2.97;;;32.00;51.40;;;;;;5047008;28;20087;-54
2023/08/09 08:58:37;;;;;;;8.32;2.17;;;31.90;51.10;;;;;;5045135;28;20076;-57
2023/08/09 09:01:03;;;;;;;9.77;3.10;;;31.90;51.00;;;;;;5046031;28;20107;-56
2023/08/09 09:03:30;;;;;;;8.70;2.70;;;31.80;50.90;;;;;;5045569;28;20080;-57
2023/08/09 09:05:56;;;;;;;10.18;2.53;;;31.70;50.40;;;;;;5045070;28;20080;-57
2023/08/09 09:08:24;;;;;;;6.93;2.35;;;31.70;50.30;;;;;;5048063;28;20084;-56
2023/08/09 09:10:54;;;;;;;8.23;2.47;;;31.60;50.20;;;;;;5049174;28;20123;-58
2023/08/09 09:13:27;;;;;;;7.00;2.67;;;31.60;50.00;;;;;;5048951;28;20512;-58
2023/08/09 09:15:55;;;;;;;7.50;2.40;;;31.50;50.00;;;;;;5049079;28;20451;-58
2023/08/09 09:18:22;;;;;;;7.68;2.88;;;31.40;49.70;;;;;;5048397;28;20080;-52
2023/08/09 09:20:49;;;;;;;8.15;2.25;;;31.40;49.90;;;;;;5048498;28;20561;-57
2023/08/09 09:23:30;;;;;;;8.05;2.40;;;31.30;49.70;;;;;;5047841;28;20134;-56
2023/08/09 09:26:11;;;;;;;5.35;2.10;;;31.30;49.50;;;;;;5047529;28;20514;-57
2023/08/09 09:28:39;;;;;;;5.95;2.67;;;31.30;49.60;;;;;;5047011;28;20096;-59
2023/08/09 09:31:06;;;;;;;7.20;2.45;;;31.20;49.50;;;;;;5048401;28;20080;-56
2023/08/09 09:33:35;;;;;;;8.48;2.35;;;31.20;49.50;;;;;;5048390;28;20167;-53
2023/08/09 09:36:03;;;;;;;15.63;2.47;;;31.30;49.40;;;;;;5047451;28;20083;-57
2023/08/09 09:38:30;;;;;;;8.43;2.22;;;31.20;49.10;;;;;;5048674;28;20076;-55
2023/08/09 09:40:57;;;;;;;8.52;2.35;;;31.30;49.30;;;;;;5048389;28;20187;-55
2023/08/09 09:43:24;;;;;;;7.40;1.98;;;31.30;49.40;;;;;;5048021;28;20449;-57
2023/08/09 09:45:57;;;;;;;6.25;2.55;;;31.30;48.70;;;;;;5049194;28;20081;-59
2023/08/09 09:48:24;;;;;;;5.88;2.03;;;31.30;48.60;;;;;;5047078;28;20079;-55
2023/08/09 09:50:51;;;;;;;6.82;1.80;;;31.30;48.30;;;;;;5049009;28;20100;-55
2023/08/09 09:53:19;;;;;;;11.48;2.80;;;31.30;48.70;;;;;;5048383;28;20127;-55
2023/08/09 09:55:46;;;;;;;12.10;2.75;;;31.30;48.40;;;;;;5047461;28;20087;-58
2023/08/09 09:58:13;;;;;;;7.05;2.70;;;31.30;48.60;;;;;;5047682;28;20088;-59
2023/08/09 10:00:50;;;;;;;4.90;2.53;;;31.30;48.60;;;;;;5048115;28;20120;-55
2023/08/09 10:03:18;;;;;;;;;;;31.30;48.60;;;;;;5046652;28;20597;-56
2023/08/09 10:05:46;;;;;;;9.07;2.17;;;31.30;48.60;;;;;;5048053;28;19972;-51
2023/08/09 10:08:14;;;;;;;8.35;1.80;;;31.30;48.20;;;;;;5048291;28;20080;-56
2023/08/09 10:10:43;;;;;;;8.13;2.47;;;31.20;48.10;;;;;;5047844;28;20116;-56
2023/08/09 10:13:11;;;;;;;5.00;2.33;;;31.20;47.90;;;;;;5048642;28;20111;-60
2023/08/09 10:15:43;;;;;;;8.40;2.60;;;31.20;48.00;;;;;;5047899;28;20132;-59
2023/08/09 10:18:27;;;;;;;6.78;2.50;;;31.10;48.20;;;;;;5047094;28;20449;-56
2023/08/09 10:20:55;;;;;;;5.05;2.20;;;31.10;47.90;;;;;;5047714;28;20092;-59
2023/08/09 10:23:25;;;;;;;8.02;2.30;;;31.10;47.80;;;;;;5048451;28;20167;-55
2023/08/09 10:25:52;;;;;;;6.03;2.53;;;31.10;47.80;;;;;;5047115;28;20077;-54
2023/08/09 10:28:39;;;;;;;5.40;2.38;;;31.10;47.80;;;;;;5047526;28;20089;-54
2023/08/09 10:31:05;;;;;;;10.18;2.10;;;31.10;47.60;;;;;;5045960;28;20084;-56
2023/08/09 10:33:32;;;;;;;5.35;2.10;;;31.10;47.50;;;;;;5047023;28;20097;-54
2023/08/09 10:35:58;;;;;;;10.35;2.40;;;31.00;47.40;;;;;;5047512;28;20542;-57
2023/08/09 10:38:31;;;;;;;9.48;2.45;;;31.00;47.40;;;;;;5046610;28;20077;-55
2023/08/09 10:40:58;;;;;;;8.75;2.60;;;31.00;47.50;;;;;;5047280;28;20096;-57
2023/08/09 10:43:29;;;;;;;10.20;2.03;;;31.00;47.50;;;;;;5047951;28;20076;-57
2023/08/09 10:46:16;;;;;;;8.80;2.40;;;31.00;48.00;;;;;;5048564;28;20109;-56
2023/08/09 10:48:59;;;;;;;10.02;2.63;;;31.00;47.50;;;;;;5047173;28;20081;-54
2023/08/09 10:51:25;;;;;;;5.95;2.10;;;31.00;47.50;;;;;;5047896;28;20076;-57
2023/08/09 10:54:04;;;;;;;5.95;2.42;;;31.00;47.20;;;;;;5046150;28;20468;-57
2023/08/09 10:56:42;;;;;;;6.88;2.28;;;31.00;47.20;;;;;;5046473;28;20491;-56
2023/08/09 10:59:21;;;;;;;3.90;1.90;;;31.00;47.10;;;;;;5046381;28;20076;-56
2023/08/09 11:01:51;;;;;;;9.07;2.60;;;30.90;47.60;;;;;;5046730;28;20111;-56
2023/08/09 11:04:18;;;;;;;5.97;2.20;;;30.90;47.60;;;;;;5046176;28;20080;-54
2023/08/09 11:06:46;;;;;;;4.45;2.00;;;30.90;47.40;;;;;;5047763;28;20097;-55
2023/08/09 11:09:17;;;;;;;10.65;2.30;;;30.80;47.70;;;;;;5046648;28;20084;-56
2023/08/09 11:11:46;;;;;;;5.25;1.95;;;30.80;48.10;;;;;;5046813;28;20084;-55
2023/08/09 11:14:15;;;;;;;6.65;2.28;;;30.80;47.90;;;;;;5045206;28;20553;-55
2023/08/09 11:16:41;;;;;;;9.82;2.40;;;30.70;47.80;;;;;;5047202;28;20088;-55
2023/08/09 11:19:10;;;;;;;6.60;2.30;;;30.80;47.60;;;;;;5045547;28;20092;-52
2023/08/09 11:21:45;;;;;;;5.60;2.30;;;30.80;47.50;;;;;;5046126;28;20108;-56
2023/08/09 11:24:15;;;;;;;9.07;2.20;;;30.70;47.50;;;;;;5046421;28;20078;-55
2023/08/09 11:26:48;;;;;;;8.18;2.78;;;30.70;48.00;;;;;;5045869;28;20084;-56
2023/08/09 11:29:18;;;;;;;6.38;2.25;;;30.70;47.70;;;;;;5045929;28;20115;-53
2023/08/09 11:31:48;;;;;;;5.18;2.03;;;30.60;47.20;;;;;;5045600;28;20580;-56
2023/08/09 11:34:18;;;;;;;7.13;2.10;;;30.70;47.20;;;;;;5047437;28;20080;-56
2023/08/09 11:36:46;;;;;;;5.60;2.22;;;30.70;46.80;;;;;;5047210;28;20097;-57
2023/08/09 11:39:13;;;;;;;4.95;2.22;;;30.60;46.50;;;;;;5046175;28;20084;-55
2023/08/09 11:41:46;;;;;;;7.40;1.98;;;30.60;46.10;;;;;;5046094;28;20092;-54
2023/08/09 11:44:14;;;;;;;5.07;2.08;;;30.70;45.80;;;;;;5045172;28;20569;-55
2023/08/09 11:46:46;;;;;;;7.15;2.83;;;30.50;45.90;;;;;;5045555;28;20080;-56
2023/08/09 11:49:13;;;;;;;6.50;2.15;;;30.60;45.80;;;;;;5045779;28;20165;-57
2023/08/09 11:51:39;;;;;;;6.20;2.17;;;30.50;45.70;;;;;;5045347;28;20621;-56
2023/08/09 11:54:10;;;;;;;3.78;1.92;;;30.60;45.50;;;;;;5046263;28;20199;-58
2023/08/09 11:56:37;;;;;;;8.27;2.28;;;30.60;45.30;;;;;;5046266;28;20084;-57
2023/08/09 11:59:05;;;;;;;10.73;2.00;;;30.60;44.80;;;;;;5044556;28;20121;-57
2023/08/09 12:01:37;;;;;;;10.40;2.33;;;30.60;44.60;;;;;;5045540;28;20688;-51
2023/08/09 12:04:09;;;;;;;6.82;2.00;;;30.60;44.50;;;;;;5046333;28;20115;-58
2023/08/09 12:06:37;;;;;;;6.80;2.03;;;30.60;44.20;;;;;;5045668;28;20485;-56
2023/08/09 12:09:34;;;;;;;5.03;2.08;;;30.60;44.00;;;;;;5046094;28;20081;-56
2023/08/09 12:12:18;;;;;;;3.60;1.80;;;30.60;43.50;;;;;;5045794;28;20242;-56
2023/08/09 12:14:52;;;;;;;9.50;1.70;;;30.60;43.20;;;;;;5046088;28;20092;-54
2023/08/09 12:17:22;;;;;;;7.15;2.00;;;30.60;42.50;;;;;;5046756;28;20087;-57
2023/08/09 12:19:51;;;;;;;5.38;1.80;;;30.70;42.50;;;;;;5044819;28;21002;-56
2023/08/09 12:22:17;;;;;;;4.55;2.22;;;30.70;42.20;;;;;;5044247;28;20183;-54
2023/08/09 12:24:44;;;;;;;4.40;1.70;;;30.70;42.30;;;;;;5045826;28;20469;-58
2023/08/09 12:27:10;;;;;;;7.78;2.13;;;30.70;42.00;;;;;;5045022;28;20079;-55
2023/08/09 12:29:37;;;;;;;5.00;1.70;;;30.70;41.90;;;;;;5045556;28;20118;-54
2023/08/09 12:32:03;;;;;;;8.05;2.20;;;30.70;42.00;;;;;;5046086;28;20099;-57
2023/08/09 12:34:30;;;;;;;4.07;1.90;;;30.70;41.40;;;;;;5045959;28;20092;-55
2023/08/09 12:36:57;;;;;;;8.77;1.98;;;30.70;41.60;;;;;;5045405;28;21578;-54
2023/08/09 12:39:24;;;;;;;7.53;1.75;;;30.70;41.80;;;;;;5045604;28;20128;-56
2023/08/09 12:41:50;;;;;;;4.13;1.77;;;30.60;41.70;;;;;;5046377;28;20096;-55
2023/08/09 12:44:16;;;;;;;4.93;1.83;;;30.60;41.50;;;;;;5048825;28;20089;-56
2023/08/09 12:46:43;;;;;;;10.55;1.83;;;30.60;41.70;;;;;;5049917;28;20080;-54